sensor_id;sensor_type;location;lat;lon;timestamp;pressure;altitude;pressure_sealevel;temperature;humidity
41862;BME280;27537;57.134;-2.136;2023-01-15T00:01:22;96750.50;;;4.55;100.00
41862;BME280;27537;57.134;-2.136;2023-01-15T00:03:50;96754.50;;;4.48;100.00
41862;BME280;27537;57.134;-2.136;2023-01-15T00:06:17;96761.56;;;4.46;100.00
41862;BME280;27537;57.134;-2.136;2023-01-15T00:08:43;96754.75;;;4.45;100.00
41862;BME280;27537;57.134;-2.136;2023-01-15T00:11:10;96759.22;;;4.54;100.00
41862;BME280;27537;57.134;-2.136;2023-01-15T00:13:37;96771.09;;;4.45;100.00
41862;BME280;27537;57.134;-2.136;2023-01-15T00:18:30;96769.81;;;4.40;100.00
41862;BME280;27537;57.134;-2.136;2023-01-15T00:20:58;96781.47;;;4.34;100.00
41862;BME280;27537;57.134;-2.136;2023-01-15T00:23:25;96782.53;;;4.43;100.00
41862;BME280;27537;57.134;-2.136;2023-01-15T00:26:17;96786.97;;;4.41;100.00
41862;BME280;27537;57.134;-2.136;2023-01-15T00:29:02;96783.34;;;4.43;100.00
41862;BME280;27537;57.134;-2.136;2023-01-15T00:31:30;96795.44;;;4.31;100.00
41862;BME280;27537;57.134;-2.136;2023-01-15T00:33:57;96799.72;;;4.32;100.00
41862;BME280;27537;57.134;-2.136;2023-01-15T00:36:23;96802.41;;;4.42;100.00
41862;BME280;27537;57.134;-2.136;2023-01-15T00:38:51;96798.78;;;4.45;100.00
41862;BME280;27537;57.134;-2.136;2023-01-15T00:41:17;96806.44;;;4.69;100.00
41862;BME280;27537;57.134;-2.136;2023-01-15T00:43:44;96812.91;;;4.63;100.00
41862;BME280;27537;57.134;-2.136;2023-01-15T00:46:11;96814.09;;;4.70;100.00
41862;BME280;27537;57.134;-2.136;2023-01-15T00:48:38;96815.03;;;4.47;100.00
41862;BME280;27537;57.134;-2.136;2023-01-15T00:51:05;96819.28;;;4.70;100.00
41862;BME280;27537;57.134;-2.136;2023-01-15T00:53:32;96822.47;;;4.74;100.00
41862;BME280;27537;57.134;-2.136;2023-01-15T00:55:58;96839.66;;;4.86;100.00
41862;BME280;27537;57.134;-2.136;2023-01-15T00:58:25;96835.19;;;4.77;100.00
41862;BME280;27537;57.134;-2.136;2023-01-15T01:00:55;96839.19;;;4.59;100.00
41862;BME280;27537;57.134;-2.136;2023-01-15T01:03:22;96844.25;;;4.71;100.00
41862;BME280;27537;57.134;-2.136;2023-01-15T01:05:49;96845.44;;;4.79;100.00
41862;BME280;27537;57.134;-2.136;2023-01-15T01:08:16;96845.91;;;4.72;100.00
41862;BME280;27537;57.134;-2.136;2023-01-15T01:10:43;96855.66;;;4.46;100.00
41862;BME280;27537;57.134;-2.136;2023-01-15T01:13:10;96846.22;;;4.45;100.00
41862;BME280;27537;57.134;-2.136;2023-01-15T01:15:37;96864.03;;;4.61;100.00
41862;BME280;27537;57.134;-2.136;2023-01-15T01:18:04;96871.81;;;4.72;100.00
41862;BME280;27537;57.134;-2.136;2023-01-15T01:20:31;96871.66;;;4.51;100.00
41862;BME280;27537;57.134;-2.136;2023-01-15T01:22:58;96885.09;;;4.56;100.00
41862;BME280;27537;57.134;-2.136;2023-01-15T01:25:24;96884.91;;;4.82;100.00
41862;BME280;27537;57.134;-2.136;2023-01-15T01:27:51;96894.44;;;4.70;100.00
41862;BME280;27537;57.134;-2.136;2023-01-15T01:30:18;96909.28;;;4.68;100.00
41862;BME280;27537;57.134;-2.136;2023-01-15T01:32:44;96917.66;;;4.83;100.00
41862;BME280;27537;57.134;-2.136;2023-01-15T01:35:11;96925.28;;;4.62;100.00
41862;BME280;27537;57.134;-2.136;2023-01-15T01:37:37;96919.84;;;4.65;100.00
41862;BME280;27537;57.134;-2.136;2023-01-15T01:40:04;96929.25;;;4.55;100.00
41862;BME280;27537;57.134;-2.136;2023-01-15T01:42:31;96934.59;;;4.65;100.00
41862;BME280;27537;57.134;-2.136;2023-01-15T01:47:56;96935.78;;;4.72;100.00
41862;BME280;27537;57.134;-2.136;2023-01-15T01:50:25;96936.72;;;4.71;100.00
41862;BME280;27537;57.134;-2.136;2023-01-15T01:52:55;96939.97;;;4.50;100.00
41862;BME280;27537;57.134;-2.136;2023-01-15T01:55:23;96949.13;;;4.43;100.00
41862;BME280;27537;57.134;-2.136;2023-01-15T01:57:51;96945.22;;;4.37;100.00
41862;BME280;27537;57.134;-2.136;2023-01-15T02:00:19;96952.63;;;4.66;100.00
41862;BME280;27537;57.134;-2.136;2023-01-15T02:02:47;96960.28;;;4.79;100.00
41862;BME280;27537;57.134;-2.136;2023-01-15T02:05:17;96954.63;;;4.74;100.00
41862;BME280;27537;57.134;-2.136;2023-01-15T02:07:47;96957.00;;;4.88;100.00
41862;BME280;27537;57.134;-2.136;2023-01-15T02:10:14;96960.59;;;4.63;100.00
41862;BME280;27537;57.134;-2.136;2023-01-15T02:12:41;96971.06;;;4.97;100.00
41862;BME280;27537;57.134;-2.136;2023-01-15T02:15:14;96978.72;;;4.99;100.00
41862;BME280;27537;57.134;-2.136;2023-01-15T02:17:48;96989.91;;;4.99;100.00
41862;BME280;27537;57.134;-2.136;2023-01-15T02:20:22;96982.59;;;4.93;100.00
41862;BME280;27537;57.134;-2.136;2023-01-15T02:22:59;96995.56;;;5.04;100.00
41862;BME280;27537;57.134;-2.136;2023-01-15T02:25:32;97008.59;;;5.16;100.00
41862;BME280;27537;57.134;-2.136;2023-01-15T02:28:09;97003.72;;;5.00;100.00
41862;BME280;27537;57.134;-2.136;2023-01-15T02:30:42;97021.59;;;4.91;100.00
41862;BME280;27537;57.134;-2.136;2023-01-15T02:33:13;97018.78;;;4.94;100.00
41862;BME280;27537;57.134;-2.136;2023-01-15T02:35:47;97018.91;;;5.04;100.00
41862;BME280;27537;57.134;-2.136;2023-01-15T02:38:20;97029.81;;;5.21;100.00
41862;BME280;27537;57.134;-2.136;2023-01-15T02:40:48;97060.00;;;4.86;100.00
41862;BME280;27537;57.134;-2.136;2023-01-15T02:43:16;97042.91;;;4.84;100.00
41862;BME280;27537;57.134;-2.136;2023-01-15T02:45:45;97047.50;;;4.80;100.00
41862;BME280;27537;57.134;-2.136;2023-01-15T02:48:13;97056.06;;;5.05;100.00
41862;BME280;27537;57.134;-2.136;2023-01-15T02:50:47;97050.69;;;5.19;100.00
41862;BME280;27537;57.134;-2.136;2023-01-15T02:53:25;97070.41;;;4.98;100.00
41862;BME280;27537;57.134;-2.136;2023-01-15T02:55:54;97080.53;;;5.01;100.00
41862;BME280;27537;57.134;-2.136;2023-01-15T02:58:24;97115.56;;;5.06;100.00
41862;BME280;27537;57.134;-2.136;2023-01-15T03:00:53;97102.72;;;5.05;100.00
41862;BME280;27537;57.134;-2.136;2023-01-15T03:08:47;97112.22;;;4.93;100.00
41862;BME280;27537;57.134;-2.136;2023-01-15T03:11:16;97108.34;;;4.99;100.00
41862;BME280;27537;57.134;-2.136;2023-01-15T03:19:09;97131.19;;;4.93;100.00
41862;BME280;27537;57.134;-2.136;2023-01-15T03:21:43;97134.50;;;4.95;100.00
41862;BME280;27537;57.134;-2.136;2023-01-15T03:24:12;97152.03;;;4.92;100.00
41862;BME280;27537;57.134;-2.136;2023-01-15T03:26:40;97150.56;;;4.77;100.00
41862;BME280;27537;57.134;-2.136;2023-01-15T03:29:06;97152.69;;;4.83;100.00
41862;BME280;27537;57.134;-2.136;2023-01-15T03:31:34;97168.09;;;4.73;100.00
41862;BME280;27537;57.134;-2.136;2023-01-15T03:34:01;97168.44;;;4.92;100.00
41862;BME280;27537;57.134;-2.136;2023-01-15T03:36:28;97187.28;;;4.94;100.00
41862;BME280;27537;57.134;-2.136;2023-01-15T03:38:56;97178.06;;;4.90;100.00
41862;BME280;27537;57.134;-2.136;2023-01-15T03:41:24;97187.94;;;4.85;100.00
41862;BME280;27537;57.134;-2.136;2023-01-15T03:49:22;97194.81;;;5.10;100.00
41862;BME280;27537;57.134;-2.136;2023-01-15T03:54:35;97198.09;;;5.12;100.00
41862;BME280;27537;57.134;-2.136;2023-01-15T03:57:10;97200.13;;;5.20;100.00
41862;BME280;27537;57.134;-2.136;2023-01-15T03:59:42;97208.47;;;5.12;100.00
41862;BME280;27537;57.134;-2.136;2023-01-15T04:02:10;97239.91;;;5.08;100.00
41862;BME280;27537;57.134;-2.136;2023-01-15T04:04:38;97211.22;;;5.22;100.00
41862;BME280;27537;57.134;-2.136;2023-01-15T04:07:06;97214.75;;;4.97;100.00
41862;BME280;27537;57.134;-2.136;2023-01-15T04:09:35;97229.34;;;5.11;100.00
41862;BME280;27537;57.134;-2.136;2023-01-15T04:12:02;97230.03;;;5.13;100.00
41862;BME280;27537;57.134;-2.136;2023-01-15T04:14:29;97279.56;;;5.10;100.00
41862;BME280;27537;57.134;-2.136;2023-01-15T04:16:56;97257.25;;;5.07;100.00
41862;BME280;27537;57.134;-2.136;2023-01-15T04:19:23;97261.63;;;5.07;100.00
41862;BME280;27537;57.134;-2.136;2023-01-15T04:21:49;97268.56;;;5.30;100.00
41862;BME280;27537;57.134;-2.136;2023-01-15T04:24:16;97261.47;;;5.21;100.00
41862;BME280;27537;57.134;-2.136;2023-01-15T04:26:43;97280.59;;;5.07;100.00
41862;BME280;27537;57.134;-2.136;2023-01-15T04:29:09;97274.03;;;5.14;100.00
41862;BME280;27537;57.134;-2.136;2023-01-15T04:31:36;97276.34;;;5.30;100.00
41862;BME280;27537;57.134;-2.136;2023-01-15T04:34:03;97286.63;;;5.32;100.00
41862;BME280;27537;57.134;-2.136;2023-01-15T04:36:29;97301.03;;;5.12;100.00
41862;BME280;27537;57.134;-2.136;2023-01-15T04:38:56;97288.16;;;5.10;100.00
41862;BME280;27537;57.134;-2.136;2023-01-15T04:41:25;97286.44;;;5.22;100.00
41862;BME280;27537;57.134;-2.136;2023-01-15T04:44:10;97286.41;;;5.35;100.00
41862;BME280;27537;57.134;-2.136;2023-01-15T04:46:38;97304.72;;;5.21;100.00
41862;BME280;27537;57.134;-2.136;2023-01-15T04:49:05;97309.63;;;5.12;100.00
41862;BME280;27537;57.134;-2.136;2023-01-15T04:51:33;97321.28;;;4.94;100.00
41862;BME280;27537;57.134;-2.136;2023-01-15T04:54:01;97326.47;;;5.31;100.00
41862;BME280;27537;57.134;-2.136;2023-01-15T04:56:28;97351.53;;;5.06;100.00
41862;BME280;27537;57.134;-2.136;2023-01-15T04:58:54;97341.66;;;5.11;100.00
41862;BME280;27537;57.134;-2.136;2023-01-15T05:01:21;97343.44;;;5.11;100.00
41862;BME280;27537;57.134;-2.136;2023-01-15T05:03:48;97353.19;;;5.07;100.00
41862;BME280;27537;57.134;-2.136;2023-01-15T05:06:15;97355.50;;;4.86;100.00
41862;BME280;27537;57.134;-2.136;2023-01-15T05:08:44;97369.16;;;5.14;100.00
41862;BME280;27537;57.134;-2.136;2023-01-15T05:11:11;97377.25;;;5.09;100.00
41862;BME280;27537;57.134;-2.136;2023-01-15T05:13:38;97370.53;;;4.94;100.00
41862;BME280;27537;57.134;-2.136;2023-01-15T05:18:35;97386.38;;;5.02;100.00
41862;BME280;27537;57.134;-2.136;2023-01-15T05:21:02;97407.03;;;5.04;100.00
41862;BME280;27537;57.134;-2.136;2023-01-15T05:23:29;97406.09;;;5.18;100.00
41862;BME280;27537;57.134;-2.136;2023-01-15T05:26:05;97401.66;;;4.94;100.00
41862;BME280;27537;57.134;-2.136;2023-01-15T05:28:32;97399.16;;;4.92;100.00
41862;BME280;27537;57.134;-2.136;2023-01-15T05:30:58;97420.44;;;4.98;100.00
41862;BME280;27537;57.134;-2.136;2023-01-15T05:33:30;97399.56;;;4.86;100.00
41862;BME280;27537;57.134;-2.136;2023-01-15T05:36:00;97439.88;;;4.90;100.00
41862;BME280;27537;57.134;-2.136;2023-01-15T05:38:27;97447.47;;;4.93;100.00
41862;BME280;27537;57.134;-2.136;2023-01-15T05:40:53;97452.56;;;4.95;100.00
41862;BME280;27537;57.134;-2.136;2023-01-15T05:43:21;97455.97;;;4.95;100.00
41862;BME280;27537;57.134;-2.136;2023-01-15T05:45:48;97461.06;;;4.97;100.00
41862;BME280;27537;57.134;-2.136;2023-01-15T05:48:15;97470.59;;;4.84;100.00
41862;BME280;27537;57.134;-2.136;2023-01-15T05:50:42;97464.50;;;5.10;100.00
41862;BME280;27537;57.134;-2.136;2023-01-15T05:53:09;97471.94;;;5.02;100.00
41862;BME280;27537;57.134;-2.136;2023-01-15T05:55:36;97475.59;;;5.00;100.00
41862;BME280;27537;57.134;-2.136;2023-01-15T05:58:02;97483.38;;;5.12;100.00
41862;BME280;27537;57.134;-2.136;2023-01-15T06:00:31;97494.28;;;5.05;100.00
41862;BME280;27537;57.134;-2.136;2023-01-15T06:02:57;97505.25;;;5.08;100.00
41862;BME280;27537;57.134;-2.136;2023-01-15T06:05:24;97519.97;;;4.95;100.00
41862;BME280;27537;57.134;-2.136;2023-01-15T06:07:51;97536.34;;;4.95;100.00
41862;BME280;27537;57.134;-2.136;2023-01-15T06:10:18;97531.84;;;4.72;100.00
41862;BME280;27537;57.134;-2.136;2023-01-15T06:12:44;97547.00;;;4.78;100.00
41862;BME280;27537;57.134;-2.136;2023-01-15T06:15:12;97559.53;;;4.71;100.00
41862;BME280;27537;57.134;-2.136;2023-01-15T06:17:39;97553.59;;;5.09;100.00
41862;BME280;27537;57.134;-2.136;2023-01-15T06:20:06;97564.84;;;4.83;100.00
41862;BME280;27537;57.134;-2.136;2023-01-15T06:22:33;97574.31;;;4.97;100.00
41862;BME280;27537;57.134;-2.136;2023-01-15T06:24:59;97588.06;;;4.84;100.00
41862;BME280;27537;57.134;-2.136;2023-01-15T06:27:26;97587.56;;;4.92;100.00
41862;BME280;27537;57.134;-2.136;2023-01-15T06:29:53;97591.75;;;5.07;100.00
41862;BME280;27537;57.134;-2.136;2023-01-15T06:32:20;97594.78;;;4.74;100.00
41862;BME280;27537;57.134;-2.136;2023-01-15T06:34:48;97595.59;;;4.74;100.00
41862;BME280;27537;57.134;-2.136;2023-01-15T06:37:15;97608.63;;;4.87;100.00
41862;BME280;27537;57.134;-2.136;2023-01-15T06:39:41;97601.94;;;4.83;100.00
41862;BME280;27537;57.134;-2.136;2023-01-15T06:42:08;97609.38;;;5.02;100.00
41862;BME280;27537;57.134;-2.136;2023-01-15T06:44:53;97615.06;;;4.94;100.00
41862;BME280;27537;57.134;-2.136;2023-01-15T06:47:38;97617.03;;;4.91;100.00
41862;BME280;27537;57.134;-2.136;2023-01-15T06:50:05;97617.50;;;4.83;100.00
41862;BME280;27537;57.134;-2.136;2023-01-15T06:52:35;97621.91;;;4.95;100.00
41862;BME280;27537;57.134;-2.136;2023-01-15T06:55:02;97624.81;;;4.91;100.00
41862;BME280;27537;57.134;-2.136;2023-01-15T06:57:28;97634.72;;;4.84;100.00
41862;BME280;27537;57.134;-2.136;2023-01-15T07:00:05;97631.50;;;4.81;100.00
41862;BME280;27537;57.134;-2.136;2023-01-15T07:02:32;97645.66;;;4.89;100.00
41862;BME280;27537;57.134;-2.136;2023-01-15T07:04:59;97666.75;;;4.83;100.00
41862;BME280;27537;57.134;-2.136;2023-01-15T07:07:37;97653.34;;;4.91;100.00
41862;BME280;27537;57.134;-2.136;2023-01-15T07:10:04;97667.06;;;4.79;100.00
41862;BME280;27537;57.134;-2.136;2023-01-15T07:12:33;97667.44;;;4.72;100.00
41862;BME280;27537;57.134;-2.136;2023-01-15T07:15:01;97677.25;;;4.67;100.00
41862;BME280;27537;57.134;-2.136;2023-01-15T07:17:27;97683.09;;;4.71;100.00
41862;BME280;27537;57.134;-2.136;2023-01-15T07:19:54;97685.84;;;4.82;100.00
41862;BME280;27537;57.134;-2.136;2023-01-15T07:22:23;97687.25;;;5.01;100.00
41862;BME280;27537;57.134;-2.136;2023-01-15T07:24:50;97707.59;;;4.94;100.00
41862;BME280;27537;57.134;-2.136;2023-01-15T07:27:17;97709.28;;;4.81;100.00
41862;BME280;27537;57.134;-2.136;2023-01-15T07:29:43;97721.97;;;4.71;100.00
41862;BME280;27537;57.134;-2.136;2023-01-15T07:32:10;97720.66;;;4.64;100.00
41862;BME280;27537;57.134;-2.136;2023-01-15T07:34:37;97731.81;;;4.66;100.00
41862;BME280;27537;57.134;-2.136;2023-01-15T07:37:04;97730.94;;;4.65;100.00
41862;BME280;27537;57.134;-2.136;2023-01-15T07:39:30;97731.19;;;4.89;100.00
41862;BME280;27537;57.134;-2.136;2023-01-15T07:41:57;97750.59;;;4.69;100.00
41862;BME280;27537;57.134;-2.136;2023-01-15T07:44:43;97763.72;;;4.52;100.00
41862;BME280;27537;57.134;-2.136;2023-01-15T07:47:28;97755.09;;;4.51;100.00
41862;BME280;27537;57.134;-2.136;2023-01-15T07:50:20;97748.09;;;4.53;100.00
41862;BME280;27537;57.134;-2.136;2023-01-15T07:52:47;97753.91;;;4.71;100.00
41862;BME280;27537;57.134;-2.136;2023-01-15T07:55:14;97765.94;;;4.44;100.00
41862;BME280;27537;57.134;-2.136;2023-01-15T07:57:40;97767.06;;;4.54;100.00
41862;BME280;27537;57.134;-2.136;2023-01-15T08:00:13;97784.63;;;4.63;100.00
41862;BME280;27537;57.134;-2.136;2023-01-15T08:02:40;97779.28;;;4.52;100.00
41862;BME280;27537;57.134;-2.136;2023-01-15T08:05:07;97800.00;;;4.52;100.00
41862;BME280;27537;57.134;-2.136;2023-01-15T08:07:35;97766.50;;;4.34;100.00
41862;BME280;27537;57.134;-2.136;2023-01-15T08:10:02;97802.59;;;4.37;100.00
41862;BME280;27537;57.134;-2.136;2023-01-15T08:12:32;97809.25;;;4.56;100.00
41862;BME280;27537;57.134;-2.136;2023-01-15T08:15:18;97811.94;;;4.69;100.00
41862;BME280;27537;57.134;-2.136;2023-01-15T08:17:48;97830.06;;;4.69;100.00
41862;BME280;27537;57.134;-2.136;2023-01-15T08:20:17;97841.75;;;4.76;100.00
41862;BME280;27537;57.134;-2.136;2023-01-15T08:22:44;97846.91;;;4.62;100.00
41862;BME280;27537;57.134;-2.136;2023-01-15T08:25:14;97847.13;;;4.73;100.00
41862;BME280;27537;57.134;-2.136;2023-01-15T08:27:41;97855.34;;;4.80;100.00
41862;BME280;27537;57.134;-2.136;2023-01-15T08:30:19;97861.63;;;4.47;100.00
41862;BME280;27537;57.134;-2.136;2023-01-15T08:32:46;97868.38;;;4.49;100.00
41862;BME280;27537;57.134;-2.136;2023-01-15T08:35:16;97877.44;;;4.42;100.00
41862;BME280;27537;57.134;-2.136;2023-01-15T08:37:43;97886.75;;;4.61;100.00
41862;BME280;27537;57.134;-2.136;2023-01-15T08:40:10;97897.47;;;4.69;100.00
41862;BME280;27537;57.134;-2.136;2023-01-15T08:42:37;97901.63;;;4.57;100.00
41862;BME280;27537;57.134;-2.136;2023-01-15T08:45:04;97906.59;;;4.46;100.00
41862;BME280;27537;57.134;-2.136;2023-01-15T08:47:34;97920.13;;;4.65;100.00
41862;BME280;27537;57.134;-2.136;2023-01-15T08:50:04;97923.03;;;4.61;100.00
41862;BME280;27537;57.134;-2.136;2023-01-15T08:52:32;97917.31;;;4.99;100.00
41862;BME280;27537;57.134;-2.136;2023-01-15T08:54:59;97926.53;;;4.74;100.00
41862;BME280;27537;57.134;-2.136;2023-01-15T08:57:27;97941.00;;;4.78;100.00
41862;BME280;27537;57.134;-2.136;2023-01-15T08:59:53;97939.25;;;4.93;100.00
41862;BME280;27537;57.134;-2.136;2023-01-15T09:02:20;97947.81;;;4.65;100.00
41862;BME280;27537;57.134;-2.136;2023-01-15T09:04:47;97953.59;;;4.84;100.00
41862;BME280;27537;57.134;-2.136;2023-01-15T09:07:14;97951.13;;;4.97;100.00
41862;BME280;27537;57.134;-2.136;2023-01-15T09:09:42;97958.16;;;4.95;100.00
41862;BME280;27537;57.134;-2.136;2023-01-15T09:12:09;97944.44;;;4.93;100.00
41862;BME280;27537;57.134;-2.136;2023-01-15T09:14:36;97952.63;;;5.01;100.00
41862;BME280;27537;57.134;-2.136;2023-01-15T09:17:22;97943.72;;;5.05;100.00
41862;BME280;27537;57.134;-2.136;2023-01-15T09:19:50;97954.31;;;4.72;100.00
41862;BME280;27537;57.134;-2.136;2023-01-15T09:22:17;97950.81;;;4.73;100.00
41862;BME280;27537;57.134;-2.136;2023-01-15T09:24:44;97954.72;;;4.80;100.00
41862;BME280;27537;57.134;-2.136;2023-01-15T09:27:12;97960.47;;;4.55;100.00
41862;BME280;27537;57.134;-2.136;2023-01-15T09:29:38;97965.41;;;4.60;100.00
41862;BME280;27537;57.134;-2.136;2023-01-15T09:32:05;97973.34;;;4.56;100.00
41862;BME280;27537;57.134;-2.136;2023-01-15T09:34:34;97980.25;;;4.72;100.00
41862;BME280;27537;57.134;-2.136;2023-01-15T09:37:02;97985.75;;;4.82;100.00
41862;BME280;27537;57.134;-2.136;2023-01-15T09:39:29;97987.19;;;4.71;100.00
41862;BME280;27537;57.134;-2.136;2023-01-15T09:42:12;97999.66;;;4.95;100.00
41862;BME280;27537;57.134;-2.136;2023-01-15T09:45:04;98007.88;;;4.87;100.00
41862;BME280;27537;57.134;-2.136;2023-01-15T09:47:39;98008.84;;;4.70;100.00
41862;BME280;27537;57.134;-2.136;2023-01-15T09:50:14;98010.19;;;4.92;100.00
41862;BME280;27537;57.134;-2.136;2023-01-15T09:55:21;98030.97;;;5.06;100.00
41862;BME280;27537;57.134;-2.136;2023-01-15T09:57:51;98027.28;;;5.10;100.00
41862;BME280;27537;57.134;-2.136;2023-01-15T10:00:20;98029.41;;;5.04;100.00
41862;BME280;27537;57.134;-2.136;2023-01-15T10:10:19;98053.19;;;4.96;100.00
41862;BME280;27537;57.134;-2.136;2023-01-15T10:12:53;98064.72;;;4.90;100.00
41862;BME280;27537;57.134;-2.136;2023-01-15T10:17:56;98054.03;;;5.11;100.00
41862;BME280;27537;57.134;-2.136;2023-01-15T10:20:30;98066.16;;;4.96;100.00
41862;BME280;27537;57.134;-2.136;2023-01-15T10:25:52;98060.72;;;5.15;100.00
41862;BME280;27537;57.134;-2.136;2023-01-15T10:28:26;98073.91;;;5.26;100.00
41862;BME280;27537;57.134;-2.136;2023-01-15T10:31:01;98078.72;;;5.32;100.00
41862;BME280;27537;57.134;-2.136;2023-01-15T10:34:17;98071.13;;;4.99;100.00
41862;BME280;27537;57.134;-2.136;2023-01-15T10:36:21;98066.97;;;5.27;100.00
41862;BME280;27537;57.134;-2.136;2023-01-15T10:38:52;98080.50;;;5.32;100.00
41862;BME280;27537;57.134;-2.136;2023-01-15T10:46:35;98076.69;;;5.23;100.00
41862;BME280;27537;57.134;-2.136;2023-01-15T10:49:11;98089.84;;;5.35;100.00
41862;BME280;27537;57.134;-2.136;2023-01-15T10:51:43;98089.38;;;5.13;100.00
41862;BME280;27537;57.134;-2.136;2023-01-15T10:56:41;98089.69;;;5.38;100.00
41862;BME280;27537;57.134;-2.136;2023-01-15T11:01:38;98088.50;;;5.13;100.00
41862;BME280;27537;57.134;-2.136;2023-01-15T11:04:07;98091.34;;;5.24;100.00
41862;BME280;27537;57.134;-2.136;2023-01-15T11:06:34;98089.44;;;5.12;100.00
41862;BME280;27537;57.134;-2.136;2023-01-15T11:09:01;98093.28;;;5.21;100.00
41862;BME280;27537;57.134;-2.136;2023-01-15T11:11:39;98094.28;;;5.18;100.00
41862;BME280;27537;57.134;-2.136;2023-01-15T11:17:59;98086.38;;;5.05;100.00
41862;BME280;27537;57.134;-2.136;2023-01-15T11:20:46;98111.69;;;5.16;100.00
41862;BME280;27537;57.134;-2.136;2023-01-15T11:23:15;98101.09;;;5.05;100.00
41862;BME280;27537;57.134;-2.136;2023-01-15T11:28:14;98107.16;;;5.20;100.00
41862;BME280;27537;57.134;-2.136;2023-01-15T11:30:42;98102.13;;;5.17;100.00
41862;BME280;27537;57.134;-2.136;2023-01-15T11:33:25;98118.59;;;5.31;100.00
41862;BME280;27537;57.134;-2.136;2023-01-15T11:35:54;98111.19;;;5.09;100.00
41862;BME280;27537;57.134;-2.136;2023-01-15T11:38:24;98118.59;;;5.01;100.00
41862;BME280;27537;57.134;-2.136;2023-01-15T11:40:56;98120.38;;;5.15;100.00
41862;BME280;27537;57.134;-2.136;2023-01-15T11:43:26;98115.19;;;5.15;100.00
41862;BME280;27537;57.134;-2.136;2023-01-15T11:46:24;98111.44;;;5.21;100.00
41862;BME280;27537;57.134;-2.136;2023-01-15T11:49:09;98110.19;;;5.12;100.00
41862;BME280;27537;57.134;-2.136;2023-01-15T11:51:56;98106.53;;;5.00;100.00
41862;BME280;27537;57.134;-2.136;2023-01-15T11:54:23;98108.94;;;5.19;100.00
41862;BME280;27537;57.134;-2.136;2023-01-15T11:56:51;98112.50;;;5.17;100.00
41862;BME280;27537;57.134;-2.136;2023-01-15T11:59:19;98116.13;;;5.14;100.00
41862;BME280;27537;57.134;-2.136;2023-01-15T12:01:50;98128.72;;;5.50;100.00
41862;BME280;27537;57.134;-2.136;2023-01-15T12:04:24;98135.28;;;5.42;100.00
41862;BME280;27537;57.134;-2.136;2023-01-15T12:06:52;98141.25;;;5.44;100.00
41862;BME280;27537;57.134;-2.136;2023-01-15T12:19:29;98155.47;;;5.67;100.00
41862;BME280;27537;57.134;-2.136;2023-01-15T12:22:08;98158.22;;;5.64;100.00
41862;BME280;27537;57.134;-2.136;2023-01-15T12:29:43;98178.47;;;5.73;100.00
41862;BME280;27537;57.134;-2.136;2023-01-15T12:32:25;98170.13;;;5.82;100.00
41862;BME280;27537;57.134;-2.136;2023-01-15T12:34:57;98182.84;;;5.87;100.00
41862;BME280;27537;57.134;-2.136;2023-01-15T12:37:31;98175.72;;;5.90;100.00
41862;BME280;27537;57.134;-2.136;2023-01-15T12:40:14;98180.22;;;5.73;100.00
41862;BME280;27537;57.134;-2.136;2023-01-15T12:42:44;98177.41;;;5.92;100.00
41862;BME280;27537;57.134;-2.136;2023-01-15T12:46:03;98181.00;;;5.89;100.00
41862;BME280;27537;57.134;-2.136;2023-01-15T12:51:07;98180.16;;;5.88;100.00
41862;BME280;27537;57.134;-2.136;2023-01-15T12:53:42;98180.06;;;5.90;100.00
41862;BME280;27537;57.134;-2.136;2023-01-15T12:58:43;98185.56;;;5.55;100.00
41862;BME280;27537;57.134;-2.136;2023-01-15T13:06:47;98177.53;;;5.29;100.00
41862;BME280;27537;57.134;-2.136;2023-01-15T13:09:26;98194.25;;;5.54;100.00
41862;BME280;27537;57.134;-2.136;2023-01-15T13:11:53;98185.13;;;5.32;100.00
41862;BME280;27537;57.134;-2.136;2023-01-15T13:14:20;98177.19;;;5.95;100.00
41862;BME280;27537;57.134;-2.136;2023-01-15T13:17:02;98190.25;;;5.48;100.00
41862;BME280;27537;57.134;-2.136;2023-01-15T13:19:49;98187.81;;;5.61;100.00
41862;BME280;27537;57.134;-2.136;2023-01-15T13:22:21;98196.16;;;5.66;100.00
41862;BME280;27537;57.134;-2.136;2023-01-15T13:27:39;98203.84;;;5.38;100.00
41862;BME280;27537;57.134;-2.136;2023-01-15T13:32:50;98196.59;;;5.59;100.00
41862;BME280;27537;57.134;-2.136;2023-01-15T13:37:51;98209.91;;;5.22;100.00
41862;BME280;27537;57.134;-2.136;2023-01-15T13:40:26;98206.44;;;5.38;100.00
41862;BME280;27537;57.134;-2.136;2023-01-15T13:42:54;98211.69;;;5.52;100.00
41862;BME280;27537;57.134;-2.136;2023-01-15T13:45:47;98204.59;;;5.40;100.00
41862;BME280;27537;57.134;-2.136;2023-01-15T13:48:12;98224.66;;;5.06;100.00
41862;BME280;27537;57.134;-2.136;2023-01-15T13:50:41;98230.66;;;5.22;100.00
41862;BME280;27537;57.134;-2.136;2023-01-15T13:53:21;98226.53;;;5.34;100.00
41862;BME280;27537;57.134;-2.136;2023-01-15T13:55:54;98229.66;;;5.25;100.00
41862;BME280;27537;57.134;-2.136;2023-01-15T13:58:23;98241.94;;;5.37;100.00
41862;BME280;27537;57.134;-2.136;2023-01-15T14:01:01;98247.38;;;5.48;100.00
41862;BME280;27537;57.134;-2.136;2023-01-15T14:03:29;98253.34;;;5.03;100.00
41862;BME280;27537;57.134;-2.136;2023-01-15T14:06:00;98254.50;;;4.97;100.00
41862;BME280;27537;57.134;-2.136;2023-01-15T14:08:35;98251.59;;;5.03;100.00
41862;BME280;27537;57.134;-2.136;2023-01-15T14:11:02;98255.63;;;5.09;100.00
41862;BME280;27537;57.134;-2.136;2023-01-15T14:21:06;98249.75;;;4.89;100.00
41862;BME280;27537;57.134;-2.136;2023-01-15T14:28:45;98243.16;;;5.00;100.00
41862;BME280;27537;57.134;-2.136;2023-01-15T14:36:18;98251.56;;;4.55;100.00
41862;BME280;27537;57.134;-2.136;2023-01-15T14:38:47;98253.22;;;4.56;100.00
41862;BME280;27537;57.134;-2.136;2023-01-15T14:41:15;98258.50;;;4.71;100.00
41862;BME280;27537;57.134;-2.136;2023-01-15T14:43:46;98266.38;;;4.69;100.00
41862;BME280;27537;57.134;-2.136;2023-01-15T14:46:18;98262.34;;;4.64;100.00
41862;BME280;27537;57.134;-2.136;2023-01-15T14:48:47;98257.81;;;4.67;100.00
41862;BME280;27537;57.134;-2.136;2023-01-15T14:51:15;98260.84;;;4.60;100.00
41862;BME280;27537;57.134;-2.136;2023-01-15T14:53:44;98262.22;;;4.49;100.00
41862;BME280;27537;57.134;-2.136;2023-01-15T14:56:20;98253.75;;;4.30;100.00